createdAt,value
2023-04-07T00:01:38.625Z,1.85
2023-04-07T00:04:05.797Z,1.70
2023-04-07T00:06:33.004Z,3.08
2023-04-07T00:09:00.121Z,1.75
2023-04-07T00:11:27.180Z,2.10
2023-04-07T00:13:54.434Z,2.20
2023-04-07T00:16:21.878Z,2.05
2023-04-07T00:18:49.107Z,2.78
2023-04-07T00:21:16.179Z,1.38
2023-04-07T00:23:43.153Z,1.30
2023-04-07T00:26:10.115Z,2.10
2023-04-07T00:28:37.188Z,1.58
2023-04-07T00:31:04.408Z,2.10
2023-04-07T00:33:31.630Z,1.95
2023-04-07T00:35:58.860Z,1.88
2023-04-07T00:38:26.112Z,1.90
2023-04-07T00:40:59.749Z,2.47
2023-04-07T00:43:27.521Z,1.65
2023-04-07T00:45:55.048Z,1.52
2023-04-07T00:48:22.273Z,1.23
2023-04-07T00:50:49.438Z,2.05
2023-04-07T00:53:16.970Z,1.85
2023-04-07T00:55:44.251Z,2.50
2023-04-07T00:58:11.384Z,1.80
2023-04-07T01:01:07.164Z,2.05
2023-04-07T01:03:38.523Z,2.15
2023-04-07T01:06:08.389Z,2.50
2023-04-07T01:08:50.663Z,1.73
2023-04-07T01:11:28.568Z,1.55
2023-04-07T01:13:58.256Z,1.77
2023-04-07T01:16:31.466Z,1.40
2023-04-07T01:19:05.036Z,2.22
2023-04-07T01:21:35.482Z,2.47
2023-04-07T01:24:17.471Z,1.90
2023-04-07T01:26:45.111Z,1.67
2023-04-07T01:29:45.087Z,1.20
2023-04-07T01:32:12.644Z,2.25
2023-04-07T01:34:42.074Z,1.33
2023-04-07T01:37:10.335Z,1.48
2023-04-07T01:39:38.765Z,2.03
2023-04-07T01:42:07.633Z,1.23
2023-04-07T01:44:35.876Z,1.35
2023-04-07T01:47:03.696Z,1.88
2023-04-07T01:49:31.801Z,2.30
2023-04-07T01:52:00.893Z,1.10
2023-04-07T01:54:28.968Z,1.30
2023-04-07T01:56:56.842Z,1.63
2023-04-07T01:59:23.979Z,2.42
2023-04-07T02:01:51.302Z,1.50
2023-04-07T02:04:37.534Z,1.23
2023-04-07T02:07:11.473Z,1.27
2023-04-07T02:09:41.789Z,1.30
2023-04-07T02:12:11.916Z,1.60
2023-04-07T02:14:39.395Z,1.58
2023-04-07T02:17:10.127Z,2.00
2023-04-07T02:19:38.087Z,2.00
2023-04-07T02:22:07.174Z,1.27
2023-04-07T02:24:34.160Z,2.65
2023-04-07T02:27:04.028Z,1.50
2023-04-07T02:29:31.345Z,1.23
2023-04-07T02:31:58.659Z,1.27
2023-04-07T02:34:25.681Z,1.15
2023-04-07T02:36:52.656Z,1.48
2023-04-07T02:39:19.898Z,1.67
2023-04-07T02:41:46.803Z,1.67
2023-04-07T02:44:13.815Z,2.78
2023-04-07T02:46:41.566Z,1.20
2023-04-07T02:49:08.543Z,1.35
2023-04-07T02:51:35.764Z,1.35
2023-04-07T02:54:02.745Z,1.25
2023-04-07T02:56:29.678Z,2.58
2023-04-07T02:58:56.774Z,1.65
2023-04-07T03:01:23.775Z,1.67
2023-04-07T03:03:51.303Z,1.50
2023-04-07T03:06:18.594Z,1.60
2023-04-07T03:08:45.570Z,1.50
2023-04-07T03:11:15.683Z,1.30
2023-04-07T03:13:42.771Z,1.23
2023-04-07T03:16:09.718Z,1.38
2023-04-07T03:18:36.776Z,2.95
2023-04-07T03:21:03.889Z,1.30
2023-04-07T03:23:31.080Z,0.95
2023-04-07T03:25:58.450Z,1.48
2023-04-07T03:28:25.572Z,2.10
2023-04-07T03:30:53.257Z,1.27
2023-04-07T03:33:20.624Z,1.48
2023-04-07T03:35:47.671Z,1.55
2023-04-07T03:38:14.808Z,1.50
2023-04-07T03:40:41.771Z,1.25
2023-04-07T03:43:12.760Z,1.25
2023-04-07T03:45:39.968Z,1.83
2023-04-07T03:48:10.776Z,1.40
2023-04-07T03:50:39.607Z,1.38
2023-04-07T03:53:06.828Z,2.88
2023-04-07T03:55:34.574Z,1.80
2023-04-07T03:58:01.962Z,1.65
2023-04-07T04:00:29.154Z,1.42
2023-04-07T04:02:56.589Z,1.55
2023-04-07T04:05:23.657Z,1.55
2023-04-07T04:07:53.001Z,2.22
2023-04-07T04:10:20.765Z,2.10
2023-04-07T04:12:48.762Z,1.52
2023-04-07T04:15:16.520Z,2.92
2023-04-07T04:17:43.578Z,1.80
2023-04-07T04:20:11.028Z,1.92
2023-04-07T04:22:38.119Z,2.15
2023-04-07T04:25:05.614Z,2.20
2023-04-07T04:27:32.538Z,2.70
2023-04-07T04:29:59.573Z,2.47
2023-04-07T04:32:26.767Z,1.88
2023-04-07T04:34:53.764Z,1.67
2023-04-07T04:37:20.695Z,1.73
2023-04-07T04:39:47.739Z,1.85
2023-04-07T04:42:14.931Z,1.98
2023-04-07T04:44:41.861Z,1.65
2023-04-07T04:47:08.901Z,2.08
2023-04-07T04:49:36.275Z,1.83
2023-04-07T04:52:08.895Z,1.95
2023-04-07T04:54:36.434Z,1.90
2023-04-07T04:57:03.477Z,2.00
2023-04-07T04:59:30.595Z,2.13
2023-04-07T05:01:57.681Z,1.33
2023-04-07T05:04:25.000Z,1.48
2023-04-07T05:06:52.250Z,2.03
2023-04-07T05:09:19.177Z,1.52
2023-04-07T05:11:46.455Z,2.03
2023-04-07T05:14:13.421Z,1.38
2023-04-07T05:16:40.514Z,1.45
2023-04-07T05:19:07.476Z,1.52
2023-04-07T05:21:34.466Z,1.73
2023-04-07T05:24:01.577Z,1.80
2023-04-07T05:26:28.580Z,1.55
2023-04-07T05:28:55.651Z,1.27
2023-04-07T05:31:22.768Z,1.85
2023-04-07T05:33:50.150Z,2.95
2023-04-07T05:36:17.498Z,1.23
2023-04-07T05:38:44.420Z,2.60
2023-04-07T05:41:11.414Z,1.40
2023-04-07T05:43:38.428Z,1.77
2023-04-07T05:46:05.512Z,2.00
2023-04-07T05:48:32.556Z,1.38
2023-04-07T05:50:59.485Z,1.27
2023-04-07T05:53:26.474Z,1.30
2023-04-07T05:55:53.414Z,1.60
2023-04-07T05:58:20.702Z,1.90
2023-04-07T06:00:47.610Z,1.33
2023-04-07T06:03:14.671Z,1.42
2023-04-07T06:05:43.906Z,1.92
2023-04-07T06:08:10.977Z,1.73
2023-04-07T06:10:37.936Z,1.42
2023-04-07T06:13:04.975Z,1.60
2023-04-07T06:15:32.085Z,1.55
2023-04-07T06:17:59.091Z,1.77
2023-04-07T06:20:28.027Z,2.13
2023-04-07T06:22:55.314Z,1.98
2023-04-07T06:25:22.343Z,1.20
2023-04-07T06:27:49.440Z,1.30
2023-04-07T06:30:16.567Z,1.40
2023-04-07T06:32:43.682Z,1.50
2023-04-07T06:35:10.830Z,1.45
2023-04-07T06:37:39.445Z,1.38
2023-04-07T06:40:08.077Z,2.00
2023-04-07T06:42:35.038Z,1.95
2023-04-07T06:45:02.358Z,3.08
2023-04-07T06:47:29.942Z,1.33
2023-04-07T06:49:57.087Z,1.95
2023-04-07T06:52:24.138Z,3.05
2023-04-07T06:54:51.095Z,1.60
2023-04-07T06:57:18.522Z,1.50
2023-04-07T06:59:45.711Z,1.55
2023-04-07T07:02:12.839Z,2.90
2023-04-07T07:04:39.927Z,1.08
2023-04-07T07:07:09.299Z,1.70
2023-04-07T07:09:38.198Z,2.97
2023-04-07T07:12:06.579Z,1.50
2023-04-07T07:14:33.669Z,1.58
2023-04-07T07:17:00.728Z,1.52
2023-04-07T07:19:27.688Z,1.38
2023-04-07T07:21:55.730Z,1.27
2023-04-07T07:24:23.376Z,1.50
2023-04-07T07:26:50.672Z,2.25
2023-04-07T07:29:17.614Z,1.58
2023-04-07T07:31:44.654Z,1.83
2023-04-07T07:34:11.674Z,1.20
2023-04-07T07:36:38.632Z,1.25
2023-04-07T07:39:06.293Z,1.90
2023-04-07T07:41:33.336Z,2.67
2023-04-07T07:44:00.450Z,1.20
2023-04-07T07:46:27.536Z,6.53
2023-04-07T07:48:54.704Z,2.10
2023-04-07T07:51:22.914Z,1.27
2023-04-07T07:53:50.183Z,1.63
2023-04-07T07:56:17.613Z,2.95
2023-04-07T07:58:44.612Z,1.40
2023-04-07T08:01:11.851Z,1.77
2023-04-07T08:03:39.016Z,1.33
2023-04-07T08:06:06.858Z,1.25
2023-04-07T08:08:33.795Z,2.00
2023-04-07T08:11:00.870Z,1.45
2023-04-07T08:13:27.909Z,1.30
2023-04-07T08:15:55.178Z,1.20
2023-04-07T08:18:22.222Z,1.33
2023-04-07T08:20:49.233Z,1.60
2023-04-07T08:23:16.402Z,1.58
2023-04-07T08:25:43.671Z,1.63
2023-04-07T08:28:10.714Z,1.20
2023-04-07T08:30:38.253Z,1.40
2023-04-07T08:33:06.467Z,1.83
2023-04-07T08:35:33.709Z,1.60
2023-04-07T08:38:00.900Z,1.13
2023-04-07T08:40:32.645Z,1.58
2023-04-07T08:43:01.546Z,1.50
2023-04-07T08:47:58.407Z,1.83
2023-04-07T08:50:28.376Z,1.70
2023-04-07T08:52:57.636Z,1.40
2023-04-07T08:55:26.301Z,1.60
2023-04-07T08:57:54.678Z,1.40
2023-04-07T09:00:22.002Z,1.60
2023-04-07T09:02:49.701Z,1.20
2023-04-07T09:05:16.675Z,1.15
2023-04-07T09:07:43.871Z,0.95
2023-04-07T09:10:11.253Z,1.80
2023-04-07T09:15:08.232Z,1.10
2023-04-07T09:17:35.284Z,1.48
2023-04-07T09:20:02.785Z,1.80
2023-04-07T09:22:40.569Z,1.13
2023-04-07T09:25:28.224Z,1.38
2023-04-07T09:28:00.935Z,1.27
2023-04-07T09:30:32.786Z,1.80
2023-04-07T09:33:01.831Z,1.40
2023-04-07T09:35:30.132Z,1.52
2023-04-07T09:38:04.842Z,1.90
2023-04-07T09:40:32.594Z,2.05
2023-04-07T09:43:00.250Z,1.75
2023-04-07T09:45:37.131Z,1.50
2023-04-07T09:48:09.178Z,2.13
2023-04-07T09:50:40.163Z,1.23
2023-04-07T09:53:07.357Z,1.50
2023-04-07T09:55:36.481Z,1.00
2023-04-07T09:58:05.229Z,1.38
2023-04-07T10:00:32.572Z,1.25
2023-04-07T10:03:00.837Z,1.58
2023-04-07T10:05:28.698Z,1.10
2023-04-07T10:07:56.636Z,1.80
2023-04-07T10:10:24.597Z,1.00
2023-04-07T10:12:54.364Z,1.10
2023-04-07T10:15:21.980Z,1.35
2023-04-07T10:17:50.364Z,1.30
2023-04-07T10:20:21.421Z,1.08
2023-04-07T10:22:51.917Z,1.55
2023-04-07T10:25:20.973Z,1.10
2023-04-07T10:27:59.484Z,1.35
2023-04-07T10:30:29.963Z,1.80
2023-04-07T10:32:57.222Z,1.77
2023-04-07T10:35:24.819Z,1.40
2023-04-07T10:38:11.855Z,1.70
2023-04-07T10:40:38.991Z,1.52
2023-04-07T10:43:09.803Z,1.20
2023-04-07T10:45:49.042Z,1.13
2023-04-07T10:48:18.388Z,1.45
2023-04-07T10:50:46.622Z,2.78
2023-04-07T10:53:15.501Z,1.20
2023-04-07T10:58:27.268Z,1.50
2023-04-07T11:01:00.859Z,1.38
2023-04-07T11:03:36.243Z,1.33
2023-04-07T11:06:06.801Z,1.10
2023-04-07T11:08:45.672Z,0.90
2023-04-07T11:11:16.622Z,0.90
2023-04-07T11:13:45.334Z,1.10
2023-04-07T11:16:13.383Z,0.98
2023-04-07T11:18:41.512Z,1.23
2023-04-07T11:21:09.218Z,1.15
2023-04-07T11:23:41.113Z,1.20
2023-04-07T11:26:11.505Z,1.77
2023-04-07T11:28:55.875Z,1.30
2023-04-07T11:31:28.877Z,1.30
2023-04-07T11:34:02.029Z,1.17
2023-04-07T11:36:34.026Z,1.13
2023-04-07T11:39:02.689Z,0.93
2023-04-07T11:41:32.964Z,1.30
2023-04-07T11:44:11.892Z,0.90
2023-04-07T11:47:00.182Z,1.00
2023-04-07T11:49:28.955Z,1.50
2023-04-07T11:52:02.229Z,1.10
2023-04-07T11:54:47.946Z,1.13
2023-04-07T11:57:15.134Z,1.00
2023-04-07T11:59:42.300Z,1.40
2023-04-07T12:02:10.145Z,1.17
2023-04-07T12:04:40.430Z,1.75
2023-04-07T12:07:09.986Z,1.50
2023-04-07T12:09:38.224Z,1.33
2023-04-07T12:12:07.312Z,1.50
2023-04-07T12:14:35.129Z,1.67
2023-04-07T12:17:03.796Z,1.70
2023-04-07T12:19:36.415Z,1.50
2023-04-07T12:22:03.981Z,1.42
2023-04-07T12:24:32.648Z,1.10
2023-04-07T12:27:00.062Z,1.33
2023-04-07T12:29:27.163Z,2.50
2023-04-07T12:31:54.179Z,1.40
2023-04-07T12:34:21.750Z,1.25
2023-04-07T12:36:49.067Z,1.75
2023-04-07T12:39:16.771Z,1.52
2023-04-07T12:41:46.157Z,2.13
2023-04-07T12:44:13.416Z,1.67
2023-04-07T12:46:40.774Z,2.28
2023-04-07T12:49:07.956Z,2.03
2023-04-07T12:51:35.189Z,1.90
2023-04-07T12:54:02.191Z,1.92
2023-04-07T12:56:29.372Z,1.45
2023-04-07T12:58:56.497Z,1.20
2023-04-07T13:01:23.607Z,1.30
2023-04-07T13:03:51.735Z,1.80
2023-04-07T13:06:19.605Z,1.35
2023-04-07T13:08:46.537Z,1.77
2023-04-07T13:11:13.750Z,1.23
2023-04-07T13:13:40.789Z,1.30
2023-04-07T13:16:08.332Z,1.83
2023-04-07T13:18:35.501Z,1.50
2023-04-07T13:21:26.590Z,1.52
2023-04-07T13:23:51.723Z,1.50
2023-04-07T13:26:18.754Z,1.65
2023-04-07T13:28:46.283Z,1.13
2023-04-07T13:31:16.290Z,1.60
2023-04-07T13:33:43.757Z,2.10
2023-04-07T13:36:10.980Z,1.17
2023-04-07T13:38:38.057Z,1.38
2023-04-07T13:41:05.061Z,1.15
2023-04-07T13:43:31.992Z,1.73
2023-04-07T13:45:59.223Z,1.20
2023-04-07T13:48:26.729Z,3.05
2023-04-07T13:50:53.947Z,1.40
2023-04-07T13:53:21.946Z,1.42
2023-04-07T13:55:49.293Z,1.52
2023-04-07T13:58:19.334Z,1.52
2023-04-07T14:00:46.460Z,1.13
2023-04-07T14:03:13.806Z,1.10
2023-04-07T14:05:41.078Z,1.30
2023-04-07T14:08:08.082Z,1.10
2023-04-07T14:10:36.481Z,1.85
2023-04-07T14:13:03.429Z,1.55
2023-04-07T14:15:30.395Z,1.50
2023-04-07T14:17:57.784Z,1.30
2023-04-07T14:20:27.081Z,1.92
2023-04-07T14:22:54.248Z,1.67
2023-04-07T14:25:21.291Z,1.35
2023-04-07T14:27:48.377Z,1.42
2023-04-07T14:30:15.648Z,1.35
2023-04-07T14:32:42.666Z,1.45
2023-04-07T14:35:09.976Z,1.60
2023-04-07T14:37:37.246Z,3.72
2023-04-07T14:40:05.383Z,2.78
2023-04-07T14:42:33.574Z,1.40
2023-04-07T14:45:01.966Z,1.90
2023-04-07T14:47:30.823Z,1.50
2023-04-07T14:49:58.115Z,2.10
2023-04-07T14:52:26.153Z,2.08
2023-04-07T14:54:53.316Z,1.90
2023-04-07T14:57:20.388Z,2.17
2023-04-07T14:59:47.758Z,2.30
2023-04-07T15:02:14.990Z,2.03
2023-04-07T15:04:42.107Z,2.17
2023-04-07T15:07:09.494Z,2.00
2023-04-07T15:09:36.588Z,1.55
2023-04-07T15:12:05.245Z,2.17
2023-04-07T15:14:32.222Z,1.35
2023-04-07T15:16:59.296Z,1.60
2023-04-07T15:19:26.475Z,1.65
2023-04-07T15:21:53.461Z,1.70
2023-04-07T15:24:22.403Z,1.77
2023-04-07T15:26:49.743Z,1.92
2023-04-07T15:29:16.851Z,3.03
2023-04-07T15:31:43.923Z,1.90
2023-04-07T15:34:10.935Z,3.45
2023-04-07T15:36:37.856Z,3.83
2023-04-07T15:39:06.990Z,3.75
2023-04-07T15:41:34.379Z,3.88
2023-04-07T15:44:04.417Z,4.07
2023-04-07T15:46:34.499Z,3.55
2023-04-07T15:49:01.755Z,2.75
2023-04-07T15:51:29.742Z,3.08
2023-04-07T15:53:56.917Z,2.63
2023-04-07T15:56:24.977Z,2.25
2023-04-07T15:58:52.355Z,2.35
2023-04-07T16:01:19.638Z,2.58
2023-04-07T16:03:47.928Z,1.50
2023-04-07T16:06:15.643Z,2.42
2023-04-07T16:08:42.748Z,3.45
2023-04-07T16:11:09.769Z,3.90
2023-04-07T16:13:37.185Z,3.92
2023-04-07T16:16:04.292Z,4.65
2023-04-07T16:18:31.290Z,5.93
2023-04-07T16:20:58.298Z,3.97
2023-04-07T16:23:25.241Z,4.72
2023-04-07T16:25:52.148Z,3.75
2023-04-07T16:28:19.061Z,3.53
2023-04-07T16:30:46.039Z,4.22
2023-04-07T16:33:13.290Z,5.72
2023-04-07T16:35:40.338Z,5.78
2023-04-07T16:38:07.357Z,7.88
2023-04-07T16:40:34.388Z,5.72
2023-04-07T16:43:01.443Z,6.07
2023-04-07T16:45:28.805Z,5.32
2023-04-07T16:47:57.750Z,5.38
2023-04-07T16:50:25.017Z,7.43
2023-04-07T16:52:51.962Z,6.65
2023-04-07T16:55:20.238Z,5.82
2023-04-07T16:57:47.884Z,6.63
2023-04-07T17:00:15.070Z,5.10
2023-04-07T17:02:42.233Z,4.95
2023-04-07T17:05:09.888Z,4.63
2023-04-07T17:07:37.242Z,4.97
2023-04-07T17:10:04.475Z,5.90
2023-04-07T17:12:31.452Z,5.60
2023-04-07T17:14:58.350Z,5.43
2023-04-07T17:17:25.649Z,5.63
2023-04-07T17:19:52.714Z,4.90
2023-04-07T17:22:19.712Z,4.22
2023-04-07T17:24:47.249Z,5.70
2023-04-07T17:27:14.280Z,5.93
2023-04-07T17:29:41.172Z,5.88
2023-04-07T17:32:08.267Z,5.13
2023-04-07T17:34:35.523Z,5.50
2023-04-07T17:37:02.531Z,5.22
2023-04-07T17:39:29.467Z,5.95
2023-04-07T17:41:56.646Z,5.93
2023-04-07T17:44:23.750Z,6.63
2023-04-07T17:46:50.870Z,5.38
2023-04-07T17:49:17.877Z,5.32
2023-04-07T17:51:44.832Z,3.33
2023-04-07T17:54:11.865Z,3.88
2023-04-07T17:56:39.172Z,4.53
2023-04-07T17:59:06.108Z,5.63
2023-04-07T18:01:33.146Z,5.63
2023-04-07T18:04:00.408Z,6.22
2023-04-07T18:06:28.670Z,4.72
2023-04-07T18:08:55.818Z,4.30
2023-04-07T18:11:23.124Z,3.75
2023-04-07T18:13:50.722Z,4.53
2023-04-07T18:16:22.057Z,4.40
2023-04-07T18:18:49.835Z,3.47
2023-04-07T18:21:16.901Z,3.33
2023-04-07T18:23:44.005Z,3.67
2023-04-07T18:26:11.107Z,3.50
2023-04-07T18:28:38.362Z,3.55
2023-04-07T18:31:08.046Z,2.65
2023-04-07T18:33:36.522Z,2.97
2023-04-07T18:36:09.506Z,2.72
2023-04-07T18:38:36.749Z,3.13
2023-04-07T18:41:06.262Z,4.00
2023-04-07T18:43:33.245Z,3.70
2023-04-07T18:46:00.526Z,3.53
2023-04-07T18:48:27.611Z,3.80
2023-04-07T18:50:55.862Z,2.92
2023-04-07T18:53:24.154Z,3.47
2023-04-07T18:55:51.584Z,2.90
2023-04-07T18:58:19.579Z,3.83
2023-04-07T19:00:50.003Z,5.70
2023-04-07T19:03:17.215Z,3.40
2023-04-07T19:05:47.676Z,3.42
2023-04-07T19:08:16.179Z,3.00
2023-04-07T19:10:43.929Z,3.47
2023-04-07T19:13:11.233Z,3.20
2023-04-07T19:15:39.518Z,3.80
2023-04-07T19:18:08.450Z,4.20
2023-04-07T19:20:35.642Z,5.10
2023-04-07T19:23:02.875Z,5.15
2023-04-07T19:25:31.338Z,5.15
2023-04-07T19:27:58.991Z,4.75
2023-04-07T19:30:26.291Z,4.40
2023-04-07T19:32:53.995Z,3.55
2023-04-07T19:35:21.229Z,3.90
2023-04-07T19:37:48.454Z,4.40
2023-04-07T19:40:15.622Z,3.83
2023-04-07T19:42:42.675Z,3.45
2023-04-07T19:45:10.500Z,4.00
2023-04-07T19:47:38.669Z,3.05
2023-04-07T19:50:06.398Z,3.80
2023-04-07T19:52:33.457Z,2.47
2023-04-07T19:55:04.066Z,2.85
2023-04-07T19:59:58.595Z,2.58
2023-04-07T20:02:25.994Z,1.70
2023-04-07T20:04:53.979Z,2.60
2023-04-07T20:07:20.948Z,2.00
2023-04-07T20:09:48.148Z,2.47
2023-04-07T20:12:15.177Z,2.83
2023-04-07T20:14:42.202Z,3.60
2023-04-07T20:17:09.944Z,3.85
2023-04-07T20:19:37.350Z,3.25
2023-04-07T20:22:04.818Z,2.92
2023-04-07T20:24:31.803Z,4.18
2023-04-07T20:26:58.778Z,3.92
2023-04-07T20:29:25.919Z,3.10
2023-04-07T20:31:53.057Z,3.20
2023-04-07T20:34:20.154Z,4.20
2023-04-07T20:36:49.027Z,3.67
2023-04-07T20:39:16.755Z,3.08
2023-04-07T20:41:45.305Z,4.05
2023-04-07T20:44:12.538Z,4.25
2023-04-07T20:46:39.642Z,3.42
2023-04-07T20:49:08.141Z,3.60
2023-04-07T20:51:38.063Z,3.17
2023-04-07T20:54:05.245Z,2.70
2023-04-07T20:56:32.288Z,2.30
2023-04-07T20:58:59.405Z,2.85
2023-04-07T21:01:26.648Z,1.83
2023-04-07T21:03:54.279Z,2.17
2023-04-07T21:06:21.580Z,2.42
2023-04-07T21:08:48.786Z,2.60
2023-04-07T21:11:16.119Z,2.78
2023-04-07T21:13:43.384Z,3.13
2023-04-07T21:16:11.154Z,3.58
2023-04-07T21:18:38.309Z,2.03
2023-04-07T21:21:05.630Z,2.03
2023-04-07T21:23:32.671Z,3.10
2023-04-07T21:26:03.591Z,3.17
2023-04-07T21:28:30.710Z,2.53
2023-04-07T21:30:57.863Z,3.45
2023-04-07T21:33:25.153Z,2.95
2023-04-07T21:35:52.937Z,2.40
2023-04-07T21:38:20.039Z,3.00
2023-04-07T21:40:47.072Z,2.88
2023-04-07T21:43:14.050Z,2.53
2023-04-07T21:45:41.163Z,3.70
2023-04-07T21:48:08.296Z,2.42
2023-04-07T21:50:35.335Z,2.67
2023-04-07T21:53:02.462Z,3.10
2023-04-07T21:55:29.422Z,2.17
2023-04-07T21:57:56.781Z,3.53
2023-04-07T22:00:23.874Z,2.60
2023-04-07T22:02:51.588Z,2.05
2023-04-07T22:05:18.913Z,1.88
2023-04-07T22:07:46.016Z,1.80
2023-04-07T22:10:13.272Z,3.38
2023-04-07T22:12:40.951Z,2.83
2023-04-07T22:15:09.636Z,2.63
2023-04-07T22:17:36.766Z,2.83
2023-04-07T22:20:05.326Z,1.90
2023-04-07T22:22:32.530Z,1.65
2023-04-07T22:24:59.462Z,2.25
2023-04-07T22:27:27.937Z,2.97
2023-04-07T22:29:54.986Z,2.08
2023-04-07T22:32:22.042Z,2.60
2023-04-07T22:34:49.155Z,2.15
2023-04-07T22:37:16.319Z,3.03
2023-04-07T22:39:46.021Z,2.20
2023-04-07T22:42:13.020Z,2.58
2023-04-07T22:44:40.046Z,2.28
2023-04-07T22:47:07.918Z,1.80
2023-04-07T22:49:34.975Z,2.15
2023-04-07T22:52:02.952Z,2.45
2023-04-07T22:54:29.910Z,2.88
2023-04-07T22:56:57.630Z,2.40
2023-04-07T22:59:24.977Z,1.90
2023-04-07T23:01:52.134Z,1.88
2023-04-07T23:04:19.147Z,3.15
2023-04-07T23:06:46.136Z,2.40
2023-04-07T23:09:13.325Z,2.95
2023-04-07T23:11:40.267Z,3.45
2023-04-07T23:14:07.458Z,3.83
2023-04-07T23:16:34.955Z,3.67
2023-04-07T23:19:02.215Z,3.85
2023-04-07T23:21:31.343Z,3.40
2023-04-07T23:23:58.892Z,2.50
2023-04-07T23:26:26.922Z,2.10
2023-04-07T23:28:53.882Z,2.45
2023-04-07T23:31:21.045Z,3.25
2023-04-07T23:33:48.068Z,3.97
2023-04-07T23:36:15.421Z,3.25
2023-04-07T23:38:42.545Z,3.47
2023-04-07T23:41:09.630Z,3.53
2023-04-07T23:43:36.597Z,2.17
2023-04-07T23:46:03.620Z,3.13
2023-04-07T23:48:31.503Z,2.35
2023-04-07T23:51:00.214Z,2.15
2023-04-07T23:53:27.361Z,2.25
2023-04-07T23:55:54.302Z,2.03
2023-04-07T23:58:21.532Z,3.15
